Airfield :







YOU CAN JOIN US ON...

 
LOGIN :

Register | Disclaimer

   EN    FR    IT 

 









Legend :    VFR   Marginal VFR   IFR   Intensive IFR   Very Intensive IFR
Visi :
Ceiling :
>= 8 km
>= 3000ft
5 to 8 km
1000 to 3000 ft
1500m to 5 km
500 to 1000 ft
800 to 1500m
200 to 500 ft
< 800m
< 200 ft
Symbols :   Thunderstorms  Fog  Heavy snow  Heavy precipitations  Wind > 20 kt






- Airport Elevation : 160 ft
- IATA code : YYR


CYYR - Goose Bay

CURRENT METAR :
  • 121900Z 36006KT 15SM FEW017 OVC028 08/04 A2977 RMK SC2SC6 SLP083

EXPIRED METARs :
  • 121842Z 00000KT 15SM FEW018 OVC027 08/04 A2977 RMK SC2SC6 SLP083
  • 121800Z 02003KT 15SM FEW014 BKN023 OVC028 08/03 A2976 RMK SF2SC6SC1 SLP081

TAF TAF CYYR
Valid from the 12 at 18:00 until the 13 at 18:00 UTC


121730Z 1218/1318 35012KT P6SM FEW010 SCT015 OVC030
TEMPO 1218/1304 P6SM -SHRA FEW010 BKN015 OVC030
FM130400 36012KT P6SM BKN015 OVC030
FM131500 02010KT P6SM FEW015 BKN030 RMK NXT FCST BY 130000Z
CZQX FIR / North America



MET'MAP, your aeronautical weather chart ! - Copyright ORBIFLY December 2007 - Disclaimer

ORBIFLY MET'MAP TEAM :

Programming & Development : Alexandra Zaïnal
Concept & original design : Baudouin d'Aumeries
Assistance for programming : Marc-Olivier Méhu
Technical & hardware support : Manuel Goepfert

Contact : metmap@orbifly.com




SOURCES & CREDITS :

   NOAA